Time;durP1;ratioP1;P1;durP2;ratioP2;P2;SDS_P1;SDS_P2;PMS_P1;PMS_P2;Temp;Humidity;BMP_temperature;BMP_pressure;BME280_temperature;BME280_humidity;BME280_pressure;Samples;Min_cycle;Max_cycle;Signal;HPM_P1;HPM_P2
2022/05/17 00:01:10;;;;;;;28.03;23.73;;;14.90;99.90;;;;;;2614711;46;20503;-76
2022/05/17 00:03:36;;;;;;;29.33;24.87;;;14.90;99.90;;;;;;2615014;54;20444;-81
2022/05/17 00:06:04;;;;;;;26.87;23.93;;;15.10;99.90;;;;;;2614721;46;20692;-82
2022/05/17 00:08:30;;;;;;;33.00;24.70;;;15.10;99.90;;;;;;2615818;54;20431;-77
2022/05/17 00:10:56;;;;;;;29.93;24.73;;;15.10;99.90;;;;;;2615227;54;20470;-78
2022/05/17 00:13:22;;;;;;;30.80;24.07;;;15.10;99.90;;;;;;2613113;54;20416;-79
2022/05/17 00:15:51;;;;;;;26.30;23.43;;;15.10;99.90;;;;;;2613956;47;20423;-79
2022/05/17 00:18:19;;;;;;;23.90;20.27;;;15.10;99.90;;;;;;2613588;54;20439;-76
2022/05/17 00:20:45;;;;;;;30.90;22.57;;;15.20;99.90;;;;;;2611600;46;20615;-76
2022/05/17 00:23:12;;;;;;;25.83;23.17;;;15.20;99.90;;;;;;2612962;54;20480;-77
2022/05/17 00:25:38;;;;;;;25.10;22.47;;;15.00;99.90;;;;;;2612866;39;21174;-77
2022/05/17 00:28:05;;;;;;;30.50;22.50;;;15.00;99.90;;;;;;2612952;39;21008;-74
2022/05/17 00:30:31;;;;;;;25.53;22.83;;;14.90;99.90;;;;;;2613796;46;20423;-76
2022/05/17 00:32:57;;;;;;;26.63;22.20;;;14.90;99.90;;;;;;2615339;54;20443;-79
2022/05/17 00:35:23;;;;;;;29.33;23.93;;;14.80;99.90;;;;;;2616522;54;20383;-79
2022/05/17 00:37:49;;;;;;;29.03;23.90;;;14.90;99.90;;;;;;2613389;54;20411;-79
2022/05/17 00:40:16;;;;;;;31.80;24.90;;;14.90;99.90;;;;;;2614075;54;20262;-79
2022/05/17 00:42:41;;;;;;;29.37;24.40;;;15.00;99.90;;;;;;2616108;54;20384;-78
2022/05/17 00:45:09;;;;;;;28.10;25.10;;;14.80;99.90;;;;;;2615605;54;20391;-76
2022/05/17 00:48:04;;;;;;;28.07;25.07;;;14.80;99.90;;;;;;2614653;46;20206;-76
2022/05/17 00:50:43;;;;;;;31.03;24.13;;;14.90;99.90;;;;;;2615679;39;20769;-77
2022/05/17 00:53:20;;;;;;;27.80;24.70;;;15.00;99.90;;;;;;2614935;54;20474;-79
2022/05/17 00:56:00;;;;;;;33.23;24.30;;;14.90;99.90;;;;;;2614716;54;20941;-79
2022/05/17 00:58:26;;;;;;;32.73;24.40;;;14.90;99.90;;;;;;2615596;54;20407;-78
2022/05/17 01:01:23;;;;;;;27.20;23.67;;;14.80;99.90;;;;;;2615453;54;20400;-78
2022/05/17 01:03:55;;;;;;;32.90;24.47;;;14.80;99.90;;;;;;2614249;54;20423;-77
2022/05/17 01:06:22;;;;;;;33.70;25.07;;;14.70;99.90;;;;;;2614324;54;20506;-76
2022/05/17 01:08:48;;;;;;;29.63;25.20;;;14.50;99.90;;;;;;2614660;31;20858;-77
2022/05/17 01:11:15;;;;;;;27.80;24.83;;;14.60;99.90;;;;;;2614649;54;20427;-78
2022/05/17 01:16:27;;;;;;;34.60;22.40;;;14.50;99.90;;;;;;2615657;47;20409;-80
2022/05/17 01:18:53;;;;;;;27.20;21.73;;;14.50;99.90;;;;;;2615878;54;20403;-80
2022/05/17 01:21:20;;;;;;;27.30;23.57;;;14.50;99.90;;;;;;2615788;54;20392;-80
2022/05/17 01:23:46;;;;;;;35.30;24.30;;;14.40;99.90;;;;;;2614922;39;20639;-79
2022/05/17 01:26:18;;;;;;;27.73;21.80;;;14.50;99.90;;;;;;2615035;39;20801;-80
2022/05/17 01:28:44;;;;;;;27.03;24.20;;;14.50;99.90;;;;;;2616136;39;20974;-78
2022/05/17 01:31:10;;;;;;;29.00;24.17;;;14.50;99.90;;;;;;2614255;54;20435;-79
2022/05/17 01:33:37;;;;;;;26.90;23.40;;;14.40;99.90;;;;;;2614908;54;20419;-74
2022/05/17 01:36:06;;;;;;;24.83;22.17;;;14.50;99.90;;;;;;2614869;54;20920;-74
2022/05/17 01:38:34;;;;;;;24.77;21.70;;;14.40;99.90;;;;;;2615192;39;20867;-77
2022/05/17 01:41:00;;;;;;;24.77;22.13;;;14.40;99.90;;;;;;2615262;54;20380;-77
2022/05/17 01:43:26;;;;;;;23.70;20.47;;;14.30;99.90;;;;;;2614029;54;20423;-80
2022/05/17 01:45:52;;;;;;;24.00;21.40;;;14.40;99.90;;;;;;2615344;54;20471;-77
2022/05/17 01:48:18;;;;;;;30.07;22.47;;;14.30;99.90;;;;;;2615074;54;20430;-78
2022/05/17 01:50:44;;;;;;;28.30;21.50;;;14.30;99.90;;;;;;2615479;54;20471;-78
2022/05/17 01:53:11;;;;;;;29.00;23.07;;;14.20;99.90;;;;;;2614745;54;20484;-79
2022/05/17 01:55:37;;;;;;;26.50;21.23;;;14.20;99.90;;;;;;2614944;54;21017;-78
2022/05/17 01:58:04;;;;;;;25.07;21.13;;;14.20;99.90;;;;;;2613018;54;20379;-76
2022/05/17 02:00:31;;;;;;;27.90;22.20;;;14.00;99.90;;;;;;2613308;54;20394;-77
2022/05/17 02:02:57;;;;;;;24.00;21.57;;;14.10;99.90;;;;;;2615130;54;21236;-76
2022/05/17 02:05:25;;;;;;;23.20;21.00;;;14.10;99.90;;;;;;2615313;54;20499;-77
2022/05/17 02:07:51;;;;;;;23.60;21.20;;;14.20;99.90;;;;;;2614788;54;20410;-76
2022/05/17 02:10:19;;;;;;;27.43;21.33;;;14.10;99.90;;;;;;2614070;54;20404;-77
2022/05/17 02:12:44;;;;;;;25.83;22.83;;;14.00;99.90;;;;;;2615302;54;20418;-75
2022/05/17 02:15:11;;;;;;;30.90;23.27;;;13.90;99.90;;;;;;2614242;54;20922;-76
2022/05/17 02:17:37;;;;;;;25.03;21.67;;;14.00;99.90;;;;;;2615294;54;20154;-77
2022/05/17 02:20:08;;;;;;;25.30;22.60;;;14.00;99.90;;;;;;2616523;54;20920;-80
2022/05/17 02:22:34;;;;;;;29.40;23.00;;;14.00;99.90;;;;;;2616761;47;20470;-79
2022/05/17 02:25:00;;;;;;;30.50;20.60;;;14.00;99.90;;;;;;2617059;54;20402;-80
2022/05/17 02:27:26;;;;;;;32.90;22.00;;;14.00;99.90;;;;;;2616934;47;20399;-79
2022/05/17 02:29:52;;;;;;;31.07;22.60;;;13.80;99.90;;;;;;2615332;54;20460;-76
2022/05/17 02:32:19;;;;;;;25.03;21.97;;;14.00;99.90;;;;;;2615503;54;20399;-76
2022/05/17 02:34:44;;;;;;;30.30;21.33;;;14.00;99.90;;;;;;2615605;39;20768;-76
2022/05/17 02:37:10;;;;;;;25.13;22.07;;;14.00;99.90;;;;;;2613897;54;20403;-78
2022/05/17 02:39:36;;;;;;;24.70;22.30;;;14.00;99.90;;;;;;2616337;54;20158;-79
2022/05/17 02:42:03;;;;;;;29.97;20.70;;;13.80;99.90;;;;;;2616780;54;20151;-80
2022/05/17 02:44:29;;;;;;;24.60;21.20;;;13.70;99.90;;;;;;2616947;54;20407;-76
2022/05/17 02:46:57;;;;;;;26.87;20.97;;;13.70;99.90;;;;;;2615724;54;20928;-77
2022/05/17 02:49:23;;;;;;;23.70;18.97;;;13.80;99.90;;;;;;2616039;47;20426;-74
2022/05/17 02:51:49;;;;;;;25.33;19.87;;;13.90;99.90;;;;;;2615201;54;20391;-74
2022/05/17 02:54:15;;;;;;;25.23;20.40;;;13.90;99.90;;;;;;2615903;54;20170;-76
2022/05/17 02:56:40;;;;;;;23.53;19.93;;;14.00;99.90;;;;;;2613403;47;20515;-76
2022/05/17 02:59:06;;;;;;;25.83;20.87;;;14.10;99.90;;;;;;2615255;54;20143;-78
2022/05/17 03:01:32;;;;;;;21.70;19.13;;;13.90;99.90;;;;;;2615095;47;20154;-78
2022/05/17 03:03:58;;;;;;;32.20;20.17;;;13.90;99.90;;;;;;2615540;54;20403;-78
2022/05/17 03:06:24;;;;;;;24.93;19.83;;;13.90;99.90;;;;;;2615462;54;20411;-80
2022/05/17 03:08:50;;;;;;;29.73;22.23;;;13.70;99.90;;;;;;2614760;54;20412;-78
2022/05/17 03:11:17;;;;;;;23.10;19.70;;;13.70;99.90;;;;;;2614972;47;20162;-78
2022/05/17 03:13:43;;;;;;;30.60;20.97;;;13.70;99.90;;;;;;2615875;47;20379;-74
2022/05/17 03:16:10;;;;;;;23.40;20.10;;;13.90;99.90;;;;;;2614842;54;20417;-75
2022/05/17 03:18:39;;;;;;;28.57;19.97;;;13.90;99.90;;;;;;2615143;49;20162;-76
2022/05/17 03:21:05;;;;;;;23.73;20.53;;;14.00;99.90;;;;;;2615334;46;20398;-75
2022/05/17 03:23:31;;;;;;;20.57;18.37;;;13.90;99.90;;;;;;2614438;39;20510;-75
2022/05/17 03:25:57;;;;;;;23.17;20.67;;;13.90;99.90;;;;;;2614511;54;20957;-76
2022/05/17 03:28:22;;;;;;;25.50;19.83;;;13.90;99.90;;;;;;2615477;54;20550;-77
2022/05/17 03:30:49;;;;;;;26.37;20.20;;;13.90;99.90;;;;;;2615425;54;20234;-76
2022/05/17 03:33:15;;;;;;;22.50;20.10;;;13.80;99.90;;;;;;2615771;54;20178;-74
2022/05/17 03:35:41;;;;;;;21.37;18.27;;;13.70;99.90;;;;;;2614520;54;20402;-73
2022/05/17 03:38:06;;;;;;;23.57;19.10;;;13.70;99.90;;;;;;2614939;54;20427;-79
2022/05/17 03:40:32;;;;;;;20.07;18.00;;;13.70;99.90;;;;;;2615132;54;20159;-77
2022/05/17 03:42:59;;;;;;;24.87;19.50;;;13.70;99.90;;;;;;2615118;54;20162;-77
2022/05/17 03:45:24;;;;;;;22.80;19.57;;;13.80;99.90;;;;;;2615835;54;20421;-78
2022/05/17 03:47:50;;;;;;;26.43;18.73;;;13.80;99.90;;;;;;2613594;54;20395;-78
2022/05/17 03:50:17;;;;;;;21.13;18.37;;;13.80;99.90;;;;;;2615530;54;20258;-77
2022/05/17 03:52:44;;;;;;;19.43;17.50;;;13.80;99.90;;;;;;2616087;39;20551;-78
2022/05/17 03:55:11;;;;;;;19.53;17.40;;;13.90;99.90;;;;;;2616108;39;20839;-80
2022/05/17 03:57:37;;;;;;;20.13;18.03;;;14.00;99.90;;;;;;2614541;54;20411;-78
2022/05/17 04:00:06;;;;;;;24.50;18.67;;;14.10;99.90;;;;;;2615850;54;20491;-78
2022/05/17 04:02:39;;;;;;;21.50;16.77;;;14.10;99.90;;;;;;2616395;54;20943;-79
2022/05/17 04:05:06;;;;;;;23.80;17.13;;;14.00;99.90;;;;;;2615116;54;20427;-79
2022/05/17 04:07:32;;;;;;;18.53;16.37;;;14.00;99.90;;;;;;2614521;51;20408;-79
2022/05/17 04:09:58;;;;;;;26.50;18.20;;;13.90;99.90;;;;;;2616292;39;20755;-79
2022/05/17 04:12:23;;;;;;;22.10;19.70;;;14.00;99.90;;;;;;2615090;54;20395;-79
2022/05/17 04:14:49;;;;;;;21.13;18.13;;;14.00;99.90;;;;;;2614317;47;20197;-72
2022/05/17 04:17:15;;;;;;;20.77;17.70;;;14.00;99.90;;;;;;2615167;54;20158;-73
2022/05/17 04:19:41;;;;;;;20.13;18.10;;;14.00;99.90;;;;;;2614914;54;20189;-78
2022/05/17 04:22:11;;;;;;;26.33;19.00;;;14.00;99.90;;;;;;2614420;54;20258;-78
2022/05/17 04:24:38;;;;;;;24.87;18.10;;;14.00;99.90;;;;;;2615389;54;20400;-73
2022/05/17 04:27:04;;;;;;;20.33;18.23;;;14.10;99.90;;;;;;2615028;54;21275;-73
2022/05/17 04:29:31;;;;;;;19.80;16.90;;;14.20;99.90;;;;;;2614545;54;20438;-76
2022/05/17 04:31:57;;;;;;;21.60;17.37;;;14.30;99.90;;;;;;2614568;54;20404;-76
2022/05/17 04:34:23;;;;;;;19.50;17.50;;;14.50;99.90;;;;;;2614424;54;20390;-72
2022/05/17 04:36:51;;;;;;;21.47;16.90;;;14.60;99.90;;;;;;2614757;54;20392;-72
2022/05/17 04:39:17;;;;;;;18.87;16.80;;;14.40;99.90;;;;;;2614469;54;20390;-77
2022/05/17 04:41:43;;;;;;;20.67;18.40;;;14.60;99.90;;;;;;2615889;47;20151;-78
2022/05/17 04:44:09;;;;;;;22.53;16.80;;;14.60;99.90;;;;;;2614721;54;20395;-73
2022/05/17 04:46:35;;;;;;;26.47;20.63;;;14.60;99.90;;;;;;2613275;54;20387;-72
2022/05/17 04:49:01;;;;;;;17.63;15.73;;;14.60;99.90;;;;;;2615200;47;20417;-73
2022/05/17 04:51:27;;;;;;;26.17;17.53;;;14.70;99.90;;;;;;2614308;46;20412;-75
2022/05/17 04:53:53;;;;;;;25.40;18.77;;;14.70;99.90;;;;;;2615281;47;20390;-73
2022/05/17 04:56:19;;;;;;;25.73;17.73;;;14.80;99.90;;;;;;2614141;54;20158;-73
2022/05/17 04:58:46;;;;;;;17.80;16.10;;;15.00;99.90;;;;;;2614918;54;20203;-76
2022/05/17 05:01:12;;;;;;;18.07;15.60;;;15.10;99.90;;;;;;2614460;54;20360;-76
2022/05/17 05:03:37;;;;;;;18.53;15.27;;;15.00;99.90;;;;;;2615071;54;20434;-74
2022/05/17 05:06:03;;;;;;;22.30;17.07;;;15.20;99.90;;;;;;2614249;54;20155;-74
2022/05/17 05:08:29;;;;;;;21.70;15.70;;;15.30;99.90;;;;;;2614366;47;20671;-74
2022/05/17 05:10:55;;;;;;;21.93;15.07;;;15.50;99.90;;;;;;2614522;47;20396;-74
2022/05/17 05:13:23;;;;;;;18.10;15.20;;;15.70;99.90;;;;;;2614477;47;20171;-74
2022/05/17 05:15:50;;;;;;;15.30;13.83;;;15.90;99.90;;;;;;2613995;51;20425;-74
2022/05/17 05:18:17;;;;;;;15.63;13.17;;;16.00;99.90;;;;;;2614031;54;20877;-77
2022/05/17 05:20:43;;;;;;;16.33;13.00;;;16.10;99.90;;;;;;2612624;54;20404;-78
2022/05/17 05:23:09;;;;;;;14.77;13.37;;;16.20;99.90;;;;;;2611408;39;20790;-77
2022/05/17 05:25:37;;;;;;;16.03;14.43;;;16.40;99.90;;;;;;2614726;39;20925;-76
2022/05/17 05:28:05;;;;;;;22.23;15.83;;;16.40;99.90;;;;;;2613346;54;20405;-74
2022/05/17 05:30:31;;;;;;;16.50;12.50;;;16.50;99.90;;;;;;2614465;47;20436;-73
2022/05/17 05:32:58;;;;;;;19.13;14.87;;;16.60;99.90;;;;;;2614444;47;20393;-73
2022/05/17 05:35:25;;;;;;;14.17;12.87;;;16.80;99.90;;;;;;2613426;54;20402;-75
2022/05/17 05:37:52;;;;;;;21.70;13.73;;;16.80;99.90;;;;;;2612602;39;21095;-74
2022/05/17 05:40:19;;;;;;;17.10;15.30;;;17.00;99.90;;;;;;2614411;54;20405;-77
2022/05/17 05:42:48;;;;;;;17.43;15.50;;;17.10;99.90;;;;;;2614184;54;20424;-77
2022/05/17 05:45:14;;;;;;;19.07;15.90;;;17.20;99.90;;;;;;2613726;47;20397;-80
2022/05/17 05:47:40;;;;;;;16.47;13.73;;;17.40;99.90;;;;;;2614725;54;20443;-80
2022/05/17 05:50:07;;;;;;;14.90;13.40;;;17.40;99.90;;;;;;2615242;54;20384;-78
2022/05/17 05:52:34;;;;;;;16.30;14.70;;;17.50;99.90;;;;;;2613859;54;20481;-78
2022/05/17 05:55:01;;;;;;;14.67;13.17;;;17.50;99.90;;;;;;2613522;54;20468;-73
2022/05/17 05:57:28;;;;;;;13.40;12.03;;;17.70;99.90;;;;;;2614452;54;20493;-73
2022/05/17 05:59:54;;;;;;;14.40;12.70;;;17.80;99.90;;;;;;2611087;54;20409;-73
2022/05/17 06:02:20;;;;;;;16.20;12.77;;;17.90;99.90;;;;;;2611334;54;20555;-73
2022/05/17 06:04:46;;;;;;;14.90;12.53;;;17.90;99.90;;;;;;2612443;39;20768;-77
2022/05/17 06:07:12;;;;;;;12.60;11.43;;;17.90;99.90;;;;;;2611197;47;20497;-78
2022/05/17 06:09:38;;;;;;;12.57;11.30;;;17.90;99.90;;;;;;2612247;54;20144;-80
2022/05/17 06:12:04;;;;;;;12.90;11.57;;;17.90;99.90;;;;;;2612243;54;20545;-79
2022/05/17 06:14:30;;;;;;;16.23;11.40;;;18.00;99.90;;;;;;2612505;54;20436;-74
2022/05/17 06:16:56;;;;;;;13.90;11.83;;;18.10;99.90;;;;;;2610782;39;20712;-73
2022/05/17 06:19:23;;;;;;;13.27;12.00;;;18.10;99.90;;;;;;2612911;46;20404;-74
2022/05/17 06:21:50;;;;;;;14.93;11.80;;;18.20;99.90;;;;;;2612993;39;20506;-74
2022/05/17 06:24:16;;;;;;;17.40;11.90;;;18.30;99.90;;;;;;2610961;54;20401;-74
2022/05/17 06:26:42;;;;;;;15.37;11.90;;;18.30;99.90;;;;;;2611801;54;20986;-74
2022/05/17 06:29:08;;;;;;;11.87;10.30;;;18.30;99.90;;;;;;2614007;47;20392;-80
2022/05/17 06:31:35;;;;;;;13.63;12.07;;;18.40;99.90;;;;;;2612594;47;20419;-81
2022/05/17 06:34:01;;;;;;;11.80;10.80;;;18.50;99.90;;;;;;2612170;54;20487;-74
2022/05/17 06:36:26;;;;;;;18.10;11.10;;;18.70;99.90;;;;;;2611748;54;20911;-73
2022/05/17 06:38:53;;;;;;;12.07;10.73;;;18.90;99.90;;;;;;2612888;54;20694;-78
2022/05/17 06:41:19;;;;;;;17.10;10.03;;;18.90;99.90;;;;;;2612364;54;20688;-77
2022/05/17 06:43:45;;;;;;;11.80;10.60;;;19.00;99.90;;;;;;2612705;54;20414;-78
2022/05/17 06:46:11;;;;;;;22.87;11.17;;;18.90;99.90;;;;;;2612578;39;20568;-78
2022/05/17 06:48:37;;;;;;;9.93;8.93;;;18.80;99.90;;;;;;2612042;46;20276;-74
2022/05/17 06:51:05;;;;;;;13.20;9.80;;;18.90;99.90;;;;;;2612408;54;20403;-74
2022/05/17 06:53:31;;;;;;;12.47;10.93;;;18.90;99.90;;;;;;2612344;46;21195;-78
2022/05/17 06:55:58;;;;;;;14.57;10.83;;;19.10;99.90;;;;;;2611519;54;20492;-79
2022/05/17 06:58:25;;;;;;;11.40;10.30;;;19.20;99.90;;;;;;2611993;54;20937;-79
2022/05/17 07:00:50;;;;;;;14.90;10.70;;;19.40;99.90;;;;;;2612941;54;20421;-79
2022/05/17 07:03:16;;;;;;;15.10;10.33;;;19.80;99.90;;;;;;2612580;54;20433;-80
2022/05/17 07:05:42;;;;;;;11.13;9.17;;;19.90;99.90;;;;;;2611829;54;20972;-78
2022/05/17 07:08:08;;;;;;;17.13;11.37;;;20.30;99.90;;;;;;2611869;54;20414;-77
2022/05/17 07:13:19;;;;;;;11.63;10.47;;;20.40;99.90;;;;;;2612120;47;20257;-78
2022/05/17 07:15:48;;;;;;;15.60;13.53;;;20.20;99.90;;;;;;2613072;54;20418;-78
2022/05/17 07:18:17;;;;;;;12.73;11.00;;;20.40;99.90;;;;;;2612848;54;20412;-77
2022/05/17 07:20:44;;;;;;;14.37;10.60;;;20.80;99.90;;;;;;2612241;54;20411;-77
2022/05/17 07:23:11;;;;;;;12.10;10.33;;;21.20;99.90;;;;;;2613287;54;20439;-75
2022/05/17 07:25:41;;;;;;;13.27;10.87;;;21.50;99.90;;;;;;2612652;54;20384;-75
2022/05/17 07:28:13;;;;;;;11.50;10.07;;;21.50;99.90;;;;;;2611263;47;20994;-77
2022/05/17 07:30:39;;;;;;;13.00;9.40;;;21.50;99.90;;;;;;2614535;54;20427;-77
2022/05/17 07:33:05;;;;;;;14.77;10.70;;;21.20;99.90;;;;;;2616383;54;20408;-75
2022/05/17 07:35:31;;;;;;;15.50;11.27;;;21.30;99.90;;;;;;2612572;39;20800;-75
2022/05/17 07:37:57;;;;;;;12.40;10.90;;;21.20;99.90;;;;;;2612713;54;20415;-74
2022/05/17 07:40:24;;;;;;;16.00;10.17;;;21.50;99.90;;;;;;2613035;54;20286;-75
2022/05/17 07:42:50;;;;;;;13.63;12.10;;;21.70;99.90;;;;;;2612861;54;20431;-75
2022/05/17 07:45:17;;;;;;;14.20;10.77;;;22.00;99.90;;;;;;2613015;54;20404;-79
2022/05/17 07:47:43;;;;;;;13.20;10.27;;;21.70;99.90;;;;;;2612849;54;20401;-80
2022/05/17 07:50:09;;;;;;;20.40;11.27;;;21.60;99.90;;;;;;2612673;54;21210;-78
2022/05/17 07:52:35;;;;;;;15.07;10.40;;;21.40;99.90;;;;;;2611889;54;20181;-78
2022/05/17 07:55:02;;;;;;;23.33;10.57;;;21.30;99.90;;;;;;2613198;47;20938;-78
2022/05/17 07:57:28;;;;;;;15.87;8.83;;;21.30;99.90;;;;;;2612236;47;20977;-78
2022/05/17 07:59:54;;;;;;;10.53;9.43;;;21.40;99.90;;;;;;2613681;54;20403;-80
2022/05/17 08:02:20;;;;;;;19.83;9.47;;;21.20;99.90;;;;;;2613428;54;20416;-80
2022/05/17 08:04:47;;;;;;;14.27;9.20;;;21.20;99.90;;;;;;2613544;39;20481;-76
2022/05/17 08:07:13;;;;;;;9.97;8.90;;;21.40;99.90;;;;;;2612523;39;21209;-78
2022/05/17 08:09:39;;;;;;;16.43;10.97;;;21.40;99.90;;;;;;2614224;54;20395;-78
2022/05/17 08:12:09;;;;;;;13.33;9.90;;;21.40;99.90;;;;;;2613843;54;20392;-79
2022/05/17 08:14:37;;;;;;;19.10;11.53;;;21.50;99.90;;;;;;2613682;54;20506;-75
2022/05/17 08:17:04;;;;;;;13.57;9.40;;;21.80;99.90;;;;;;2614428;47;20414;-76
2022/05/17 08:19:30;;;;;;;14.83;10.30;;;21.90;99.90;;;;;;2615306;54;20391;-83
2022/05/17 08:21:56;;;;;;;11.20;9.47;;;21.80;99.90;;;;;;2615139;54;20403;-81
2022/05/17 08:24:22;;;;;;;15.17;9.80;;;21.80;99.90;;;;;;2614955;51;20504;-75
2022/05/17 08:29:32;;;;;;;17.50;11.33;;;21.80;99.90;;;;;;2611686;39;20818;-73
2022/05/17 08:34:42;;;;;;;17.47;12.37;;;21.60;99.90;;;;;;2612754;54;20536;-82
2022/05/17 08:37:08;;;;;;;16.50;12.40;;;21.50;99.90;;;;;;2612606;54;20442;-83
2022/05/17 08:39:34;;;;;;;14.90;10.70;;;21.70;99.90;;;;;;2613496;54;20161;-83
2022/05/17 08:42:17;;;;;;;14.70;12.13;;;21.70;99.90;;;;;;2613762;47;20151;-84
2022/05/17 08:44:49;;;;;;;16.17;11.67;;;21.90;99.90;;;;;;2613380;54;20411;-83
2022/05/17 08:47:27;;;;;;;18.23;10.53;;;22.00;99.90;;;;;;2614461;39;21293;-83
2022/05/17 08:50:02;;;;;;;12.83;10.30;;;21.90;99.90;;;;;;2613513;54;20423;-82
2022/05/17 08:52:30;;;;;;;15.97;8.60;;;21.60;99.90;;;;;;2613779;47;20408;-82
2022/05/17 08:55:23;;;;;;;12.33;9.30;;;21.50;99.90;;;;;;2613267;47;20416;-77
2022/05/17 08:57:54;;;;;;;13.17;9.47;;;21.40;99.90;;;;;;2612194;54;20511;-77
2022/05/17 09:00:45;;;;;;;11.50;8.10;;;21.60;99.90;;;;;;2611749;54;20388;-77
2022/05/17 09:03:31;;;;;;;13.17;8.27;;;21.90;99.90;;;;;;2610795;54;20434;-77
2022/05/17 09:06:23;;;;;;;13.37;8.00;;;21.90;99.90;;;;;;2612449;54;20414;-77
2022/05/17 09:09:24;;;;;;;13.13;8.80;;;22.10;99.90;;;;;;2611270;46;20423;-74
2022/05/17 09:11:57;;;;;;;13.73;8.30;;;22.00;99.90;;;;;;2612217;54;20399;-74
2022/05/17 09:14:33;;;;;;;10.87;7.57;;;21.90;99.90;;;;;;2612035;46;20738;-78
2022/05/17 09:17:19;;;;;;;12.10;5.10;;;21.90;99.90;;;;;;2612591;54;20402;-78
2022/05/17 09:19:49;;;;;;;9.20;6.67;;;21.80;99.90;;;;;;2613360;54;20511;-84
2022/05/17 09:22:15;;;;;;;8.60;5.07;;;22.00;99.90;;;;;;2612869;54;20520;-81
2022/05/17 09:24:44;;;;;;;11.10;7.20;;;22.00;99.90;;;;;;2614087;54;20578;-83
2022/05/17 09:27:24;;;;;;;11.60;7.37;;;22.10;99.90;;;;;;2614749;47;20527;-83
2022/05/17 09:30:03;;;;;;;6.87;5.73;;;22.30;99.90;;;;;;2613915;54;20374;-83
2022/05/17 09:32:32;;;;;;;15.03;5.50;;;22.50;99.90;;;;;;2612535;47;20415;-82
2022/05/17 09:35:03;;;;;;;16.83;5.93;;;22.50;98.40;;;;;;2612746;54;20404;-77
2022/05/17 09:37:36;;;;;;;7.43;5.33;;;22.50;93.00;;;;;;2611891;54;20978;-77
2022/05/17 09:40:06;;;;;;;9.50;5.13;;;22.50;94.10;;;;;;2612009;39;20784;-77
2022/05/17 09:43:02;;;;;;;9.50;5.70;;;22.30;96.30;;;;;;2612543;54;20419;-77
2022/05/17 09:45:46;;;;;;;6.20;5.60;;;22.30;99.20;;;;;;2611351;54;20443;-77
2022/05/17 09:48:13;;;;;;;9.90;7.20;;;22.50;98.00;;;;;;2613258;39;20777;-79
2022/05/17 09:53:51;;;;;;;8.93;5.33;;;23.10;91.50;;;;;;2611843;46;20427;-78
2022/05/17 09:56:26;;;;;;;9.90;5.47;;;23.40;84.60;;;;;;2612315;54;20406;-78
2022/05/17 09:58:51;;;;;;;9.53;6.63;;;23.70;83.00;;;;;;2611263;54;20454;-79
2022/05/17 10:01:19;;;;;;;6.83;6.20;;;23.60;79.50;;;;;;2612073;54;20943;-79
2022/05/17 10:04:03;;;;;;;7.77;6.27;;;23.70;79.30;;;;;;2612646;54;20162;-80
2022/05/17 10:06:36;;;;;;;10.03;6.80;;;23.50;83.70;;;;;;2610854;54;20515;-79
2022/05/17 10:09:08;;;;;;;7.47;6.50;;;23.20;87.50;;;;;;2612593;47;20392;-79
2022/05/17 10:12:00;;;;;;;7.90;6.43;;;23.10;89.80;;;;;;2612152;54;20396;-79
2022/05/17 10:14:40;;;;;;;11.27;7.70;;;23.00;90.20;;;;;;2611626;54;20400;-74
2022/05/17 10:17:23;;;;;;;8.97;7.47;;;23.20;88.80;;;;;;2611756;54;21435;-74
2022/05/17 10:19:53;;;;;;;14.23;7.97;;;23.40;91.50;;;;;;2613156;47;20403;-81
2022/05/17 10:22:44;;;;;;;14.37;7.97;;;23.40;91.60;;;;;;2613572;54;20535;-80
2022/05/17 10:25:25;;;;;;;9.27;8.30;;;23.40;94.00;;;;;;2617471;54;20403;-84
2022/05/17 10:28:09;;;;;;;11.93;8.27;;;23.60;90.40;;;;;;2616825;54;20400;-84
2022/05/17 10:30:38;;;;;;;11.27;8.40;;;23.50;91.00;;;;;;2616727;54;20408;-83
2022/05/17 10:33:13;;;;;;;13.63;8.00;;;23.50;91.40;;;;;;2617812;54;20391;-75
2022/05/17 10:35:53;;;;;;;9.53;8.10;;;23.60;91.30;;;;;;2612662;54;20414;-74
2022/05/17 10:38:32;;;;;;;13.33;8.10;;;23.60;87.20;;;;;;2612926;54;20403;-75
2022/05/17 10:40:58;;;;;;;8.33;7.40;;;23.60;93.00;;;;;;2613667;54;20404;-74
2022/05/17 10:43:30;;;;;;;14.53;8.80;;;23.40;90.60;;;;;;2614853;54;20423;-84
2022/05/17 10:46:05;;;;;;;8.93;8.00;;;23.20;93.90;;;;;;2618820;39;20821;-84
2022/05/17 10:48:55;;;;;;;10.47;9.30;;;23.30;95.60;;;;;;2616823;47;21159;-73
2022/05/17 10:51:35;;;;;;;13.60;7.30;;;23.60;92.40;;;;;;2611208;54;20411;-72
2022/05/17 10:54:25;;;;;;;8.87;6.77;;;23.70;88.00;;;;;;2612179;54;21220;-74
2022/05/17 10:57:14;;;;;;;13.93;7.50;;;23.60;84.50;;;;;;2612041;54;21205;-74
2022/05/17 10:59:54;;;;;;;8.53;7.57;;;24.10;75.10;;;;;;2615037;46;20411;-83
2022/05/17 11:02:23;;;;;;;10.43;6.10;;;24.60;66.80;;;;;;2616809;54;20410;-83
2022/05/17 11:05:09;;;;;;;11.20;6.10;;;25.10;62.00;;;;;;2616746;54;20970;-84
2022/05/17 11:07:49;;;;;;;14.93;7.03;;;25.10;61.60;;;;;;2617926;54;20404;-83
2022/05/17 11:10:37;;;;;;;8.57;6.40;;;25.00;57.20;;;;;;2614759;46;20437;-81
2022/05/17 11:13:22;;;;;;;8.73;7.30;;;24.90;60.90;;;;;;2614608;54;20409;-82
2022/05/17 11:16:00;;;;;;;7.47;6.47;;;25.20;56.50;;;;;;2615564;47;20426;-82
2022/05/17 11:18:39;;;;;;;10.90;7.23;;;25.00;53.20;;;;;;2616326;54;20403;-80
2022/05/17 11:21:16;;;;;;;13.10;5.80;;;24.40;54.40;;;;;;2613993;54;20985;-79
2022/05/17 11:23:56;;;;;;;9.20;6.00;;;24.30;60.00;;;;;;2614129;54;20419;-77
2022/05/17 11:27:08;;;;;;;9.83;6.53;;;24.20;67.20;;;;;;2611891;47;20407;-76
2022/05/17 11:30:12;;;;;;;6.40;5.83;;;24.10;68.60;;;;;;2611922;47;20403;-74
2022/05/17 11:32:42;;;;;;;5.00;4.33;;;24.00;66.00;;;;;;2610449;54;20494;-73
2022/05/17 11:35:26;;;;;;;10.10;4.60;;;23.90;64.20;;;;;;2615659;54;20384;-80
2022/05/17 11:37:54;;;;;;;7.27;4.07;;;23.70;61.00;;;;;;2614938;47;20372;-81
2022/05/17 11:40:49;;;;;;;5.40;4.23;;;23.80;59.90;;;;;;2614979;54;20415;-82
2022/05/17 11:44:00;;;;;;;6.87;4.70;;;23.90;55.70;;;;;;2612862;54;20446;-76
2022/05/17 11:46:30;;;;;;;3.97;3.63;;;23.70;57.30;;;;;;2611544;54;20445;-76
2022/05/17 11:48:57;;;;;;;7.23;4.00;;;23.70;54.00;;;;;;2611363;54;20423;-79
2022/05/17 11:51:36;;;;;;;6.37;3.70;;;23.70;62.40;;;;;;2612023;46;20506;-80
2022/05/17 11:54:06;;;;;;;6.20;3.90;;;23.60;67.60;;;;;;2613169;47;20519;-76
2022/05/17 11:56:38;;;;;;;3.93;3.53;;;23.60;56.80;;;;;;2611488;46;20403;-78
2022/05/17 11:59:13;;;;;;;6.50;3.97;;;23.30;53.90;;;;;;2611113;54;20395;-75
2022/05/17 12:01:38;;;;;;;4.40;3.00;;;23.10;51.90;;;;;;2611242;54;20432;-76
2022/05/17 12:04:21;;;;;;;4.80;3.60;;;22.80;50.80;;;;;;2611873;54;21303;-77
2022/05/17 12:06:56;;;;;;;5.77;3.70;;;23.10;51.00;;;;;;2613555;46;20189;-77
2022/05/17 12:09:47;;;;;;;4.50;3.97;;;23.10;57.60;;;;;;2614495;54;20970;-83
2022/05/17 12:12:32;;;;;;;6.00;3.57;;;22.70;61.00;;;;;;2615120;54;20404;-83
2022/05/17 12:15:33;;;;;;;6.70;3.17;;;22.70;67.30;;;;;;2616444;54;20430;-78
2022/05/17 12:18:13;;;;;;;5.93;3.43;;;22.70;67.80;;;;;;2619505;54;20472;-79
2022/05/17 12:21:05;;;;;;;8.63;4.90;;;22.60;52.00;;;;;;2612514;54;20998;-73
2022/05/17 12:23:56;;;;;;;11.43;2.83;;;22.60;56.70;;;;;;2612342;39;20823;-73
2022/05/17 12:27:04;;;;;;;3.43;3.10;;;22.60;45.20;;;;;;2612793;46;20426;-73
2022/05/17 12:32:21;;;;;;;2.93;2.73;;;22.50;52.00;;;;;;2612671;54;20418;-73
2022/05/17 12:34:53;;;;;;;6.57;3.00;;;22.80;50.10;;;;;;2613412;54;20403;-74
2022/05/17 12:37:25;;;;;;;3.63;3.33;;;22.90;57.10;;;;;;2612142;47;20519;-74
2022/05/17 12:45:31;;;;;;;8.57;4.10;;;23.30;45.00;;;;;;2612675;54;20491;-73
2022/05/17 12:48:00;;;;;;;4.33;3.33;;;23.60;48.60;;;;;;2612535;54;20414;-73
2022/05/17 12:50:37;;;;;;;4.87;3.27;;;23.90;44.50;;;;;;2612567;47;20435;-73
2022/05/17 12:53:21;;;;;;;8.17;3.90;;;24.00;44.20;;;;;;2612925;47;20403;-77
2022/05/17 12:56:09;;;;;;;4.63;3.43;;;23.90;49.80;;;;;;2612788;54;20419;-77
2022/05/17 12:58:47;;;;;;;4.83;4.27;;;23.80;48.10;;;;;;2611954;54;20416;-74
2022/05/17 13:01:13;;;;;;;3.67;3.37;;;23.60;47.90;;;;;;2612653;54;20407;-74
2022/05/17 13:03:43;;;;;;;9.60;4.00;;;23.50;46.50;;;;;;2609911;54;20423;-74
2022/05/17 13:06:09;;;;;;;5.13;4.53;;;23.60;50.20;;;;;;2612058;46;20439;-74
2022/05/17 13:08:38;;;;;;;6.50;4.80;;;23.70;55.60;;;;;;2611700;54;20447;-74
2022/05/17 13:11:14;;;;;;;5.80;4.40;;;23.60;55.00;;;;;;2613060;47;20403;-74
2022/05/17 13:13:41;;;;;;;7.80;5.20;;;23.60;59.60;;;;;;2611880;54;20445;-73